Warnock, OH

2:58 AM EDT on November 01, 2014 (GMT -0400)
Washington County | Change Station
CLOSE
Current Station
Airport
Location: Washington,
Elevation: 1184 ft
Nearby Weather Stations

Elev 1184 ft 40.14 °N, 80.29 °W | Updated 3 minutes ago

Overcast
Overcast
41 °F
Feels Like 37 °F
N
6
Wind Variable Wind from North

Today
High -- | Low -- °F
--% Chance of Precip.
Yesterday
High -- | Low -- °F
Precip. -- in
7:52 AM 6:21 PM
Waxing Gibbous, 63% visible
Pressure 29.88 in
Visibility 5.0 miles
Clouds Few 600 ft
Scattered Clouds 1500 ft
Overcast 2000 ft
Windchill 37 °F
Dew Point 37 °F
Humidity 87%
Rainfall 0.10 in
Snow Depth Not available.
UV 0 out of 12
Pollen .10 out of 12
Air Quality Not available.
Flu Activity Not available.
METAR KAFJ 010655Z AUTO 35005KT 5SM FEW006 SCT015 OVC020 05/03 A2988 RMK AO1 P0002

More Conditions Fewer Conditions

Pressure 29.88 in
Visibility 5.0 miles
Clouds Few 600 ft
Scattered Clouds 1500 ft
Overcast 2000 ft
Windchill 37 °F
Dew Point 37 °F
Humidity 87%
Rainfall 0.10 in
Snow Depth Not available.
UV 0 out of 12
Pollen .10 out of 12
Air Quality Not available.
Flu Activity Not available.
METAR KAFJ 010655Z AUTO 35005KT 5SM FEW006 SCT015 OVC020 05/03 A2988 RMK AO1 P0002

More Conditions Fewer Conditions

10-Day Weather Forecast

Almanac

Astronomy

Nov. 01, 2014 Rise Set
Actual Time
Civil Twilight
Nautical Twilight
Astronomical Twilight
Moon
Length of Visible Light
Length of Day
Tomorrow will be .
, % of the Moon is Illuminated

Today's Extremes

State Highs State Lows

Community

WunderPhotos

Upload Photos

1,766,865 photos uploaded!

WunderBlogs® & News

Nearby

Air Quality

  Air Quality AQ Index Pollutant
Not available.

Snow Depth

Station Depth Elevation

Earthquake Activity

City Distance Mag. Time & Date
Minimum magnitude displayed is 2.5.

Coastal Water Temperatures

Place Temperature

Nearby Weather Stations